createdAt,value
2023-03-27T00:01:26.572Z,8.00
2023-03-27T00:03:53.806Z,7.80
2023-03-27T00:06:22.119Z,7.70
2023-03-27T00:08:53.223Z,7.60
2023-03-27T00:11:25.277Z,7.70
2023-03-27T00:13:54.553Z,7.60
2023-03-27T00:16:25.406Z,7.80
2023-03-27T00:18:53.427Z,7.90
2023-03-27T00:21:22.572Z,8.10
2023-03-27T00:23:50.007Z,7.90
2023-03-27T00:26:17.195Z,7.90
2023-03-27T00:28:44.213Z,7.70
2023-03-27T00:31:12.947Z,7.80
2023-03-27T00:33:40.686Z,7.80
2023-03-27T00:36:08.465Z,7.80
2023-03-27T00:38:35.502Z,7.70
2023-03-27T00:41:03.205Z,7.70
2023-03-27T00:43:34.202Z,7.70
2023-03-27T00:46:16.256Z,7.90
2023-03-27T00:48:47.335Z,8.20
2023-03-27T00:51:15.895Z,8.10
2023-03-27T00:53:44.067Z,8.00
2023-03-27T00:56:12.688Z,7.90
2023-03-27T00:58:44.950Z,8.00
2023-03-27T01:01:14.806Z,8.10
2023-03-27T01:03:44.285Z,8.20
2023-03-27T01:06:14.038Z,8.20
2023-03-27T01:08:44.245Z,8.20
2023-03-27T01:11:29.406Z,8.20
2023-03-27T01:14:12.285Z,8.20
2023-03-27T01:16:47.864Z,8.00
2023-03-27T01:20:01.845Z,7.90
2023-03-27T01:22:42.790Z,8.00
2023-03-27T01:25:28.444Z,7.80
2023-03-27T01:27:58.559Z,7.80
2023-03-27T01:30:33.901Z,7.80
2023-03-27T01:33:36.634Z,7.70
2023-03-27T01:36:26.105Z,7.70
2023-03-27T01:39:02.796Z,7.50
2023-03-27T01:41:52.531Z,7.50
2023-03-27T01:44:58.093Z,7.50
2023-03-27T01:47:39.758Z,7.60
2023-03-27T01:50:45.182Z,7.60
2023-03-27T01:53:30.171Z,7.80
2023-03-27T01:56:06.012Z,7.80
2023-03-27T01:58:46.465Z,7.80
2023-03-27T02:01:18.338Z,7.70
2023-03-27T02:03:57.232Z,7.60
2023-03-27T02:06:31.577Z,7.50
2023-03-27T02:09:11.561Z,7.50
2023-03-27T02:11:44.950Z,7.40
2023-03-27T02:14:17.407Z,7.40
2023-03-27T02:16:49.307Z,7.40
2023-03-27T02:19:28.787Z,7.30
2023-03-27T02:21:55.688Z,7.30
2023-03-27T02:24:22.616Z,7.40
2023-03-27T02:26:57.923Z,7.30
2023-03-27T02:29:54.860Z,7.30
2023-03-27T02:32:48.399Z,7.30
2023-03-27T02:35:29.662Z,7.40
2023-03-27T02:38:19.365Z,7.50
2023-03-27T02:41:08.372Z,7.60
2023-03-27T02:43:49.664Z,7.70
2023-03-27T02:46:56.690Z,7.60
2023-03-27T02:49:33.076Z,7.70
2023-03-27T02:52:09.817Z,7.60
2023-03-27T02:54:44.035Z,7.50
2023-03-27T02:57:17.091Z,7.50
2023-03-27T02:59:49.339Z,7.60
2023-03-27T03:02:24.745Z,7.70
2023-03-27T03:05:08.728Z,7.70
2023-03-27T03:07:38.314Z,7.60
2023-03-27T03:10:09.853Z,7.50
2023-03-27T03:12:37.604Z,7.50
2023-03-27T03:15:05.314Z,7.50
2023-03-27T03:17:32.144Z,7.60
2023-03-27T03:19:59.860Z,7.80
2023-03-27T03:22:27.155Z,7.80
2023-03-27T03:24:53.996Z,7.90
2023-03-27T03:27:21.115Z,7.70
2023-03-27T03:29:48.562Z,7.50
2023-03-27T03:32:16.053Z,7.50
2023-03-27T03:34:46.612Z,7.40
2023-03-27T03:37:13.944Z,7.30
2023-03-27T03:39:40.773Z,7.10
2023-03-27T03:42:09.129Z,7.10
2023-03-27T03:44:37.216Z,6.90
2023-03-27T03:47:04.849Z,6.80
2023-03-27T03:49:31.779Z,6.80
2023-03-27T03:52:03.667Z,6.80
2023-03-27T03:54:33.783Z,6.90
2023-03-27T03:57:01.073Z,6.90
2023-03-27T03:59:28.535Z,6.90
2023-03-27T04:01:55.912Z,6.80
2023-03-27T04:04:22.841Z,6.90
2023-03-27T04:06:49.756Z,6.90
2023-03-27T04:09:17.458Z,7.10
2023-03-27T04:11:44.345Z,6.90
2023-03-27T04:14:11.210Z,6.90
2023-03-27T04:16:38.818Z,6.90
2023-03-27T04:19:06.175Z,7.00
2023-03-27T04:21:33.185Z,6.90
2023-03-27T04:24:02.779Z,6.90
2023-03-27T04:26:30.148Z,7.00
2023-03-27T04:28:57.192Z,6.80
2023-03-27T04:31:25.136Z,6.90
2023-03-27T04:33:52.531Z,6.90
2023-03-27T04:36:19.854Z,7.00
2023-03-27T04:38:48.149Z,7.10
2023-03-27T04:41:15.521Z,7.10
2023-03-27T04:43:42.521Z,6.90
2023-03-27T04:46:09.991Z,6.90
2023-03-27T04:48:39.102Z,6.90
2023-03-27T04:51:07.037Z,7.10
2023-03-27T04:53:36.268Z,7.10
2023-03-27T04:56:05.530Z,7.00
2023-03-27T04:58:35.273Z,7.20
2023-03-27T05:01:06.313Z,6.90
2023-03-27T05:03:35.557Z,6.80
2023-03-27T05:06:04.645Z,7.00
2023-03-27T05:08:32.765Z,6.70
2023-03-27T05:10:59.664Z,6.60
2023-03-27T05:13:26.559Z,6.60
2023-03-27T05:15:53.407Z,6.50
2023-03-27T05:18:20.869Z,6.50
2023-03-27T05:20:50.011Z,6.40
2023-03-27T05:23:17.068Z,6.50
2023-03-27T05:26:00.195Z,6.50
2023-03-27T05:28:28.440Z,6.50
2023-03-27T05:30:58.951Z,6.50
2023-03-27T05:33:25.990Z,6.30
2023-03-27T05:35:53.386Z,6.40
2023-03-27T05:38:20.586Z,6.50
2023-03-27T05:40:47.390Z,6.50
2023-03-27T05:43:14.352Z,6.50
2023-03-27T05:45:41.388Z,6.50
2023-03-27T05:48:09.451Z,6.70
2023-03-27T05:50:37.383Z,6.50
2023-03-27T05:53:08.993Z,6.50
2023-03-27T05:55:37.213Z,6.50
2023-03-27T05:58:06.251Z,6.50
2023-03-27T06:00:34.436Z,6.50
2023-03-27T06:03:04.045Z,6.60
2023-03-27T06:05:32.590Z,6.50
2023-03-27T06:07:59.624Z,6.50
2023-03-27T06:10:29.233Z,6.40
2023-03-27T06:13:05.246Z,6.70
2023-03-27T06:15:33.721Z,6.60
2023-03-27T06:18:00.799Z,6.70
2023-03-27T06:20:27.701Z,6.80
2023-03-27T06:22:56.859Z,6.90
2023-03-27T06:25:25.743Z,6.90
2023-03-27T06:27:54.356Z,7.10
2023-03-27T06:30:24.853Z,7.10
2023-03-27T06:32:57.807Z,7.00
2023-03-27T06:35:27.191Z,7.00
2023-03-27T06:37:55.929Z,6.80
2023-03-27T06:40:25.338Z,6.80
2023-03-27T06:42:54.777Z,6.70
2023-03-27T06:45:23.641Z,6.70
2023-03-27T06:47:54.822Z,6.70
2023-03-27T06:50:24.587Z,6.90
2023-03-27T06:52:51.739Z,7.00
2023-03-27T06:55:21.065Z,7.00
2023-03-27T06:57:53.329Z,7.00
2023-03-27T07:00:24.537Z,7.00
2023-03-27T07:02:56.875Z,6.90
2023-03-27T07:05:26.493Z,6.90
2023-03-27T07:07:54.784Z,7.10
2023-03-27T07:10:22.844Z,7.20
2023-03-27T07:12:51.932Z,7.30
2023-03-27T07:15:19.154Z,7.40
2023-03-27T07:17:54.172Z,7.60
2023-03-27T07:20:21.773Z,7.70
2023-03-27T07:22:48.653Z,7.70
2023-03-27T07:25:15.737Z,7.60
2023-03-27T07:27:42.584Z,7.90
2023-03-27T07:30:12.275Z,8.00
2023-03-27T07:32:41.972Z,8.10
2023-03-27T07:35:09.572Z,8.10
2023-03-27T07:37:39.549Z,8.30
2023-03-27T07:40:08.203Z,8.40
2023-03-27T07:42:35.421Z,8.50
2023-03-27T07:45:04.449Z,8.60
2023-03-27T07:47:32.257Z,8.50
2023-03-27T07:49:59.170Z,8.60
2023-03-27T07:52:26.209Z,8.70
2023-03-27T07:54:53.205Z,8.80
2023-03-27T07:57:20.163Z,8.80
2023-03-27T07:59:47.269Z,8.70
2023-03-27T08:02:14.295Z,8.60
2023-03-27T08:04:41.768Z,8.80
2023-03-27T08:07:10.165Z,8.80
2023-03-27T08:09:37.377Z,8.90
2023-03-27T08:12:07.746Z,9.10
2023-03-27T08:14:34.545Z,9.20
2023-03-27T08:17:14.442Z,9.20
2023-03-27T08:19:45.521Z,9.20
2023-03-27T08:22:12.821Z,9.30
2023-03-27T08:24:40.059Z,9.40
2023-03-27T08:27:07.210Z,9.50
2023-03-27T08:29:34.113Z,9.60
2023-03-27T08:32:01.616Z,9.90
2023-03-27T08:34:29.574Z,10.10
2023-03-27T08:36:56.561Z,10.40
2023-03-27T08:39:23.646Z,10.50
2023-03-27T08:41:55.920Z,10.60
2023-03-27T08:44:25.049Z,10.70
2023-03-27T08:47:01.618Z,10.90
2023-03-27T08:49:33.282Z,11.10
2023-03-27T08:52:08.993Z,11.40
2023-03-27T08:54:38.396Z,11.60
2023-03-27T08:57:19.909Z,11.60
2023-03-27T08:59:47.452Z,11.70
2023-03-27T09:02:33.981Z,11.80
2023-03-27T09:05:08.851Z,11.90
2023-03-27T09:07:48.142Z,11.80
2023-03-27T09:10:15.413Z,11.00
2023-03-27T09:13:04.843Z,10.70
2023-03-27T09:15:49.512Z,10.10
2023-03-27T09:18:41.255Z,9.50
2023-03-27T09:21:19.980Z,9.40
2023-03-27T09:23:48.350Z,9.10
2023-03-27T09:26:20.189Z,9.00
2023-03-27T09:28:51.355Z,9.00
2023-03-27T09:31:21.121Z,9.10
2023-03-27T09:33:48.110Z,9.10
2023-03-27T09:36:15.087Z,9.30
2023-03-27T09:38:46.462Z,9.30
2023-03-27T09:41:26.768Z,9.20
2023-03-27T09:44:17.973Z,9.30
2023-03-27T09:46:48.945Z,9.30
2023-03-27T09:49:21.027Z,9.40
2023-03-27T09:51:52.908Z,9.70
2023-03-27T09:54:22.574Z,9.90
2023-03-27T09:57:07.043Z,10.00
2023-03-27T09:59:37.894Z,10.10
2023-03-27T10:02:27.205Z,10.30
2023-03-27T10:05:04.544Z,10.60
2023-03-27T10:07:31.574Z,11.10
2023-03-27T10:10:15.769Z,11.10
2023-03-27T10:12:43.814Z,11.20
2023-03-27T10:15:39.202Z,11.20
2023-03-27T10:18:24.844Z,11.50
2023-03-27T10:20:59.449Z,11.70
2023-03-27T10:23:28.285Z,11.60
2023-03-27T10:26:01.634Z,11.90
2023-03-27T10:28:36.655Z,12.50
2023-03-27T10:31:11.221Z,12.60
2023-03-27T10:33:41.365Z,12.70
2023-03-27T10:36:10.633Z,12.80
2023-03-27T10:38:40.775Z,13.10
2023-03-27T10:41:17.624Z,13.00
2023-03-27T10:43:56.896Z,13.80
2023-03-27T10:46:27.905Z,13.50
2023-03-27T10:49:10.109Z,13.00
2023-03-27T10:51:52.548Z,12.60
2023-03-27T10:54:45.606Z,12.00
2023-03-27T10:57:30.976Z,11.80
2023-03-27T11:00:20.541Z,11.70
2023-03-27T11:02:53.703Z,12.20
2023-03-27T11:05:36.347Z,12.50
2023-03-27T11:08:18.245Z,12.40
2023-03-27T11:10:47.175Z,12.20
2023-03-27T11:13:23.395Z,11.60
2023-03-27T11:16:01.005Z,11.40
2023-03-27T11:18:37.797Z,11.30
2023-03-27T11:21:14.481Z,11.30
2023-03-27T11:23:53.114Z,11.20
2023-03-27T11:26:23.223Z,11.00
2023-03-27T11:29:16.978Z,10.90
2023-03-27T11:31:48.460Z,10.80
2023-03-27T11:34:28.921Z,10.70
2023-03-27T11:37:01.164Z,11.00
2023-03-27T11:39:53.154Z,11.70
2023-03-27T11:42:26.853Z,12.20
2023-03-27T11:44:54.151Z,12.20
2023-03-27T11:48:07.402Z,12.20
2023-03-27T11:50:39.341Z,11.70
2023-03-27T11:53:31.145Z,11.30
2023-03-27T11:56:12.580Z,11.10
2023-03-27T11:58:59.917Z,10.90
2023-03-27T12:01:41.881Z,10.30
2023-03-27T12:04:27.768Z,10.40
2023-03-27T12:07:33.932Z,10.60
2023-03-27T12:10:18.527Z,10.60
2023-03-27T12:12:59.733Z,10.80
2023-03-27T12:15:32.709Z,10.90
2023-03-27T12:18:35.361Z,11.30
2023-03-27T12:21:14.870Z,11.70
2023-03-27T12:24:16.798Z,12.20
2023-03-27T12:27:15.819Z,12.20
2023-03-27T12:29:53.367Z,12.00
2023-03-27T12:32:38.968Z,11.70
2023-03-27T12:35:12.383Z,11.80
2023-03-27T12:38:09.927Z,11.40
2023-03-27T12:40:41.920Z,10.60
2023-03-27T12:43:29.546Z,10.30
2023-03-27T12:46:15.879Z,10.40
2023-03-27T12:48:54.483Z,10.60
2023-03-27T12:51:48.345Z,10.60
2023-03-27T12:54:34.049Z,10.80
2023-03-27T12:57:21.428Z,10.90
2023-03-27T12:59:48.373Z,11.00
2023-03-27T13:02:16.095Z,11.20
2023-03-27T13:05:27.612Z,11.60
2023-03-27T13:08:10.376Z,11.90
2023-03-27T13:10:56.594Z,12.10
2023-03-27T13:13:51.026Z,12.00
2023-03-27T13:16:48.515Z,12.40
2023-03-27T13:19:40.411Z,12.40
2023-03-27T13:22:33.141Z,12.20
2023-03-27T13:25:31.766Z,11.90
2023-03-27T13:28:30.745Z,11.50
2023-03-27T13:31:00.078Z,11.40
2023-03-27T13:33:40.685Z,11.60
2023-03-27T13:36:19.463Z,11.80
2023-03-27T13:38:51.940Z,12.40
2023-03-27T13:41:49.129Z,12.80
2023-03-27T13:44:25.245Z,13.00
2023-03-27T13:47:14.641Z,12.80
2023-03-27T13:49:41.701Z,12.20
2023-03-27T13:52:19.977Z,11.70
2023-03-27T13:55:10.716Z,11.60
2023-03-27T13:57:58.579Z,11.40
2023-03-27T14:00:44.855Z,11.00
2023-03-27T14:03:18.364Z,10.80
2023-03-27T14:06:01.464Z,10.60
2023-03-27T14:08:55.400Z,10.70
2023-03-27T14:11:23.806Z,11.00
2023-03-27T14:14:08.599Z,11.20
2023-03-27T14:16:57.316Z,11.50
2023-03-27T14:19:39.573Z,11.80
2023-03-27T14:22:28.035Z,11.90
2023-03-27T14:25:02.734Z,12.10
2023-03-27T14:27:32.558Z,12.10
2023-03-27T14:30:24.329Z,12.20
2023-03-27T14:32:52.636Z,12.20
2023-03-27T14:35:42.638Z,12.10
2023-03-27T14:38:24.932Z,12.40
2023-03-27T14:40:57.086Z,12.80
2023-03-27T14:43:27.628Z,12.80
2023-03-27T14:46:02.330Z,12.80
2023-03-27T14:48:37.446Z,12.80
2023-03-27T14:51:10.519Z,12.90
2023-03-27T14:53:44.211Z,13.30
2023-03-27T14:56:30.873Z,13.70
2023-03-27T14:59:04.438Z,13.90
2023-03-27T15:01:32.048Z,14.10
2023-03-27T15:04:02.278Z,14.40
2023-03-27T15:06:36.443Z,14.90
2023-03-27T15:09:05.726Z,14.90
2023-03-27T15:11:41.099Z,14.90
2023-03-27T15:14:18.415Z,14.50
2023-03-27T15:17:12.055Z,14.70
2023-03-27T15:19:49.407Z,14.40
2023-03-27T15:22:23.232Z,13.80
2023-03-27T15:25:01.057Z,13.40
2023-03-27T15:27:35.544Z,13.00
2023-03-27T15:30:28.952Z,13.00
2023-03-27T15:33:02.205Z,13.30
2023-03-27T15:35:51.885Z,13.50
2023-03-27T15:38:26.109Z,13.70
2023-03-27T15:41:01.355Z,13.40
2023-03-27T15:43:30.195Z,13.30
2023-03-27T15:46:12.041Z,13.10
2023-03-27T15:48:50.803Z,13.00
2023-03-27T15:51:20.771Z,12.90
2023-03-27T15:53:50.180Z,12.90
2023-03-27T15:56:22.392Z,12.90
2023-03-27T15:59:01.864Z,12.50
2023-03-27T16:01:40.827Z,12.40
2023-03-27T16:04:12.439Z,12.30
2023-03-27T16:06:44.017Z,12.20
2023-03-27T16:09:39.855Z,12.10
2023-03-27T16:12:09.499Z,11.60
2023-03-27T16:14:52.847Z,11.20
2023-03-27T16:17:45.681Z,11.20
2023-03-27T16:20:13.327Z,10.80
2023-03-27T16:22:40.605Z,10.80
2023-03-27T16:25:09.901Z,10.80
2023-03-27T16:27:43.562Z,10.80
2023-03-27T16:30:36.148Z,10.60
2023-03-27T16:33:04.072Z,10.70
2023-03-27T16:35:32.473Z,10.50
2023-03-27T16:37:59.977Z,10.40
2023-03-27T16:40:27.450Z,10.40
2023-03-27T16:42:54.343Z,10.30
2023-03-27T16:45:21.502Z,10.20
2023-03-27T16:47:52.305Z,10.20
2023-03-27T16:50:24.675Z,10.40
2023-03-27T16:52:51.724Z,10.50
2023-03-27T16:55:19.708Z,10.50
2023-03-27T16:57:46.850Z,10.40
2023-03-27T17:00:15.693Z,10.40
2023-03-27T17:02:44.627Z,10.40
2023-03-27T17:05:12.189Z,10.30
2023-03-27T17:07:41.829Z,10.30
2023-03-27T17:10:10.530Z,10.30
2023-03-27T17:12:37.950Z,10.40
2023-03-27T17:15:05.876Z,10.30
2023-03-27T17:17:32.954Z,10.20
2023-03-27T17:20:00.792Z,10.30
2023-03-27T17:22:29.957Z,10.10
2023-03-27T17:25:01.262Z,10.00
2023-03-27T17:27:28.579Z,10.00
2023-03-27T17:29:59.716Z,10.00
2023-03-27T17:32:29.759Z,10.00
2023-03-27T17:34:56.987Z,9.80
2023-03-27T17:37:24.314Z,9.60
2023-03-27T17:39:51.563Z,9.70
2023-03-27T17:42:18.713Z,9.60
2023-03-27T17:44:46.012Z,9.70
2023-03-27T17:47:14.013Z,9.80
2023-03-27T17:49:43.359Z,9.70
2023-03-27T17:52:12.036Z,9.70
2023-03-27T17:54:39.358Z,9.50
2023-03-27T17:57:06.361Z,9.40
2023-03-27T17:59:33.495Z,9.30
2023-03-27T18:02:00.494Z,9.30
2023-03-27T18:04:27.582Z,9.20
2023-03-27T18:06:54.788Z,9.20
2023-03-27T18:09:21.859Z,9.10
2023-03-27T18:11:48.877Z,9.00
2023-03-27T18:14:15.772Z,9.00
2023-03-27T18:16:42.959Z,8.90
2023-03-27T18:19:10.070Z,8.80
2023-03-27T18:21:37.057Z,8.70
2023-03-27T18:24:04.180Z,8.50
2023-03-27T18:26:31.292Z,8.60
2023-03-27T18:28:58.268Z,8.50
2023-03-27T18:31:25.677Z,8.50
2023-03-27T18:33:52.916Z,8.40
2023-03-27T18:36:20.441Z,8.30
2023-03-27T18:38:49.622Z,8.10
2023-03-27T18:41:16.805Z,8.10
2023-03-27T18:43:43.660Z,8.00
2023-03-27T18:46:16.704Z,8.00
2023-03-27T18:48:45.596Z,7.90
2023-03-27T18:51:12.660Z,7.90
2023-03-27T18:53:39.655Z,7.80
2023-03-27T18:56:07.396Z,7.70
2023-03-27T18:58:35.395Z,7.90
2023-03-27T19:01:08.520Z,7.80
2023-03-27T19:03:37.071Z,7.70
2023-03-27T19:06:06.604Z,7.70
2023-03-27T19:08:37.553Z,7.60
2023-03-27T19:11:08.250Z,7.40
2023-03-27T19:13:35.549Z,7.30
2023-03-27T19:16:02.483Z,7.20
2023-03-27T19:18:41.450Z,7.20
2023-03-27T19:21:08.490Z,7.20
2023-03-27T19:23:35.657Z,7.10
2023-03-27T19:26:11.131Z,6.90
2023-03-27T19:28:38.040Z,7.00
2023-03-27T19:31:10.027Z,6.90
2023-03-27T19:33:37.288Z,6.90
2023-03-27T19:36:04.846Z,6.70
2023-03-27T19:38:32.216Z,6.80
2023-03-27T19:40:59.838Z,6.90
2023-03-27T19:43:28.091Z,6.90
2023-03-27T19:46:14.213Z,7.00
2023-03-27T19:48:44.191Z,6.90
2023-03-27T19:51:11.162Z,6.80
2023-03-27T19:53:38.265Z,6.60
2023-03-27T19:56:05.848Z,6.40
2023-03-27T19:58:32.802Z,6.30
2023-03-27T20:01:00.353Z,6.40
2023-03-27T20:03:29.650Z,6.30
2023-03-27T20:06:07.861Z,6.20
2023-03-27T20:08:39.653Z,6.40
2023-03-27T20:11:07.265Z,6.60
2023-03-27T20:13:42.333Z,6.40
2023-03-27T20:16:16.509Z,6.20
2023-03-27T20:18:43.847Z,6.10
2023-03-27T20:21:13.755Z,6.20
2023-03-27T20:23:42.059Z,6.10
2023-03-27T20:26:09.389Z,6.00
2023-03-27T20:28:36.854Z,6.10
2023-03-27T20:31:05.650Z,6.00
2023-03-27T20:33:33.129Z,6.00
2023-03-27T20:36:00.399Z,5.90
2023-03-27T20:38:31.508Z,5.80
2023-03-27T20:41:03.976Z,5.80
2023-03-27T20:43:39.030Z,5.70
2023-03-27T20:46:06.988Z,5.70
2023-03-27T20:48:40.579Z,5.70
2023-03-27T20:51:17.631Z,5.60
2023-03-27T20:53:54.220Z,5.60
2023-03-27T20:56:22.240Z,5.50
2023-03-27T20:58:50.121Z,5.50
2023-03-27T21:01:19.509Z,5.50
2023-03-27T21:03:49.775Z,5.50
2023-03-27T21:06:19.791Z,5.50
2023-03-27T21:08:47.495Z,5.50
2023-03-27T21:11:14.586Z,5.50
2023-03-27T21:13:41.836Z,5.50
2023-03-27T21:16:09.238Z,5.50
2023-03-27T21:18:36.366Z,5.50
2023-03-27T21:21:03.425Z,5.40
2023-03-27T21:23:30.746Z,5.40
2023-03-27T21:25:58.262Z,5.40
2023-03-27T21:28:25.731Z,5.40
2023-03-27T21:30:52.830Z,5.30
2023-03-27T21:33:19.994Z,5.20
2023-03-27T21:35:47.954Z,5.20
2023-03-27T21:38:17.046Z,5.20
2023-03-27T21:40:45.744Z,5.20
2023-03-27T21:43:13.152Z,5.10
2023-03-27T21:45:40.325Z,5.10
2023-03-27T21:48:07.432Z,5.00
2023-03-27T21:50:34.420Z,5.20
2023-03-27T21:53:01.242Z,5.20
2023-03-27T21:55:28.144Z,5.10
2023-03-27T21:57:55.032Z,5.10
2023-03-27T22:00:22.054Z,5.10
2023-03-27T22:02:49.385Z,4.80
2023-03-27T22:05:16.332Z,4.70
2023-03-27T22:07:45.393Z,4.90
2023-03-27T22:10:13.489Z,5.00
2023-03-27T22:12:41.053Z,4.70
2023-03-27T22:15:08.838Z,4.60
2023-03-27T22:17:36.701Z,4.60
2023-03-27T22:20:05.939Z,4.70
2023-03-27T22:22:34.969Z,4.60
2023-03-27T22:25:02.131Z,4.70
2023-03-27T22:27:29.675Z,4.60
2023-03-27T22:29:56.750Z,4.60
2023-03-27T22:32:23.644Z,4.60
2023-03-27T22:34:50.710Z,4.50
2023-03-27T22:37:17.879Z,4.70
2023-03-27T22:39:45.097Z,4.50
2023-03-27T22:42:12.153Z,4.60
2023-03-27T22:44:39.407Z,4.60
2023-03-27T22:47:06.377Z,4.70
2023-03-27T22:49:33.281Z,4.60
2023-03-27T22:52:00.365Z,4.50
2023-03-27T22:54:27.297Z,4.40
2023-03-27T22:56:55.248Z,4.30
2023-03-27T22:59:22.407Z,4.20
2023-03-27T23:01:49.267Z,4.20
2023-03-27T23:04:18.115Z,4.50
2023-03-27T23:06:45.630Z,4.30
2023-03-27T23:09:12.622Z,4.30
2023-03-27T23:11:39.742Z,4.30
2023-03-27T23:14:06.672Z,4.30
2023-03-27T23:16:33.727Z,4.30
2023-03-27T23:19:00.939Z,4.20
2023-03-27T23:21:27.912Z,4.10
2023-03-27T23:23:55.083Z,4.20
2023-03-27T23:26:21.939Z,4.20
2023-03-27T23:28:48.741Z,4.20
2023-03-27T23:31:20.213Z,4.10
2023-03-27T23:33:50.388Z,4.10
2023-03-27T23:36:20.476Z,4.10
2023-03-27T23:38:48.349Z,4.00
2023-03-27T23:41:16.121Z,4.10
2023-03-27T23:43:44.138Z,4.40
2023-03-27T23:46:11.323Z,4.60
2023-03-27T23:48:40.071Z,4.20
2023-03-27T23:51:07.753Z,3.80
2023-03-27T23:53:35.371Z,3.80
2023-03-27T23:56:02.984Z,3.90
2023-03-27T23:58:32.753Z,3.80
